This site, now in its 15th season, is a labour of love and fun from one of Ottawa's most avid time trialists and number crunchers. It adheres to and is permitted by the laws of Canada, promotes the objectives of every bicycle club whose results are shown, and is donated free of charge by myself for your enjoyment and usage. If you would like results from series you ride in to be shown here, give me (celia@drmath.ca) a shout!


Index Page
ATT OTT WTT AATT CFCTT VVVTT
Help resultformat:
Case-sensitive

OBC Open TT Series - 2009-May-07 - 15km (Rockliffe Pkwy) (EvtFactor = 0.8699)

Weather (18:00): Mostly Cloudy. Temp.: 17.1C, Humidity: 68%, DewPoint: 11.1C, Wind: SW 7km/h, Pressure: 99.32kPa, Visibility: 24.1km.
Weather (19:00): Mainly Clear. Temp.: 16.7C, Humidity: 68%, DewPoint: 10.8C, Wind: SSW 7km/h, Pressure: 99.31kPa, Visibility: 24.1km.
Weather (20:00): Mainly Clear. Temp.: 14.4C, Humidity: 82%, DewPoint: 11.4C, Wind: SSE 7km/h, Pressure: 99.34kPa, Visibility: 24.1km.

Send photos with description (when/where/what) of yourself on or off of bike to celia@drmath.ca

These results were first posted on the OBC site circa 15:10 on 2009-May-09 and are available here for your added pleasure and analysis.

Favourable conditions which were warmer, calmer and of lower air pressure than on Good Friday resulted in improvements tonight for all 27 of those who finished both events. As well 17 improved upon their previous 15km database bests. Of these, special recognition goes to first place Thomas Devisscher and third place Alex Cataford, both in their second years of their age categories. This was Thomas' second foray into the 19's, and it's only the first week of May! Alex's ride tonight was the second fastest cadet ride currently databased, second only to Andrew Lattimore's 19:49 done on 2007-Aug-23, much later in the season. We'll watch with interest to see if Alex breaks Andrew's CAM record this year. Meanwhile, the ladies had some good performances with first-place Margot Hall improving upon her PB by a whopping 36 seconds. As well, there is some great competition in the 70-79 year old category. Good competition is fun and inspirational for us all.

 
 

BESTS?
 
Y 1 Devisscher, Thomas --- 19:43 45.647 1/74 SEM 1/5  
2 Hawkes, Craig CYC 20:11 44.591 2/74 VAM 1/15  
3 Cataford, Alex OBC 20:47 43.304 3/74 CAM 1/2 1.2688
4 van den Ham, Douglas  OBC/EMD 20:49 43.235 4/74 VAM 2/15 1.1354
5 Katz, Joel  OBC 20:57 42.959 5/74 VCM 1/12  
6 Hamilton, Peter OBC 21:03 42.755 6/74 VBM 1/13 1.1031
McClure, Robert OBC 21:03 42.755 6/74 VBM 1/13  
8 Desbiens, Martin OBC/RDO 21:04 42.722 8/74 VBM 3/13  
9 Mullington, Chris WQW 21:38 41.602 9/74 VCM 2/12  
10 Sugden, David RDO 21:39 41.570 10/74 VBM 4/13 1.3063
11 Kruger, Andrew  ULT 21:40 41.538 11/74 VAM 3/15 1.2197
12 Cameron, Allen  OBC/RWR 21:50 41.221 12/74 VCM 3/12  
13 Lefebvre, Jean-Pierre OBC 21:51 41.190 13/74 VAM 4/15  
14 Tregunno, Peter  OBC 21:57 41.002 14/74 VAM 5/15  
15 Budgell, Glen  OBC 22:00 40.909 15/74 VCM 4/12 1.1427
16 Farish, Neil  OBC/RWR 22:01 40.878 16/74 VCM 5/12 1.1475
17 Skafel, Paul CYC 22:05 40.755 17/74 VAM 6/15  
18 Campbell, Colin  FC 22:19 40.329 18/74 VBM 5/13 1.1677
19 Orange, Robert RWR 22:22 40.238 19/74 VBM 6/13  
20 Cordier, Gilles IND 22:26 40.119 20/74 VCM 6/12  
21 Posthuma, Hans  OBC 22:56 39.244 21/74 VCM 7/12  
22 Morris, Steve EUR 23:05 38.989 22/74 VBM 7/13 1.2959
23 Kerckhoff, Hermann  RWR 23:07 38.933 23/74 VEM 1/2 1.1905
24 Moerman, Bram  OBC 23:12 38.793 24/74 VDM 1/3 1.3620
25 Reissner, Leslie OBC 23:17 38.654 25/74 VCM 8/12 1.1770
26 Burdett, Avery  OBC 23:19 38.599 26/74 VEM 2/2 1.0905
27 Trafford, Brian OBC 23:20 38.571 27/74 JUM 1/1 1.6730
28 Michel, Alexandre  WQW 23:23 38.489 28/74 VAM 7/15 1.1154
29 Young, Paul  OBC 23:33 38.217 29/74 VBM 8/13  
30 Hall, Margot OBC 23:35 38.163 30/74 VAF 1/7  
31 Blagdon, Wendy  CYC 23:37 38.109 31/74 VBF 1/5  
Labelle, Marc-Antoine OBC 23:37 38.109 31/74 CAM 2/2 1.4723
Langevin, Roger  OBC 23:37 38.109 31/74 VAM 8/15 1.2125
34 Bergevin, Jean OBC 23:42 37.975 34/74 VBM 9/13  
Robitaille, Brian  OBC 23:42 37.975 34/74 VBM 9/13  
36 Wilkinson, Ross OBC 23:44 37.921 36/74 VBM 11/13  
37 Muller-Cheng, Evan OBC 24:04 37.396 37/74 SEM 2/5 1.0125
38 Coney, Michael OBC 24:06 37.344 38/74 VDM 2/3  
39 Henry, Mike --- 24:15 37.113 39/74 VAM 9/15 1.3802
40 Dorego, Jean-Louis OBC 24:17 37.062 40/74 VCM 9/12  
41 Braekevelt, Eric OBC 24:22 36.936 41/74 VAM 10/15  
42 Kirton, Ian OBC 24:23 36.910 42/74 VAM 11/15 1.3602
Medaglia, Tyler OBC 24:23 36.910 42/74 SEM 3/5  
44 D'Aoust, Sylvie  CYF 24:30 36.735 44/74 VAF 2/7  
Pazdzior, Ellen  OBC 24:30 36.735 44/74 VCF 1/3  
46 Burge, Larry  OBC 24:32 36.685 46/74 VBM 12/13 1.4919
47 Imbrogno, Giorgio  OBC 24:37 36.561 47/74 VDM 3/3  
Y Laplante-Lamarche, Florence OBC 24:37 36.561 47/74 JUF 1/1  
49 Coney, Ingrid  OBC 24:45 36.364 49/74 VCF 2/3  
50 Blais, Bob OBC 24:52 36.193 50/74 VCM 10/12  
51 MacKinnon, Anita  OBC/RDO 24:53 36.169 51/74 VAF 3/7  
52 Ingham, Alison  OBC/RWR 25:02 35.952 52/74 VBF 2/5  
53 Fontaine, Dominic EUR 25:23 35.456 53/74 VAM 12/15  
54 Bernard, Audrey OBC 25:39 35.088 54/74 CAF 1/3  
55 Austen, Ian  OBC 25:40 35.065 55/74 VCM 11/12  
Janusauskas, Vytas  OBC 25:40 35.065 55/74 VCM 11/12 1.1110
57 McKinnon, Carrie OBC 25:57 34.682 57/74 VBF 3/5  
58 McInnis, Celia  OBC/ABC 25:58 34.660 58/74 VCF 3/3 1.2073
59 May, Nick OBC 26:07 34.461 59/74 SEM 4/5  
Yardley, Jane  CYF 26:07 34.461 59/74 VAF 4/7  
61 Worobeck, Kathleen CYF 26:35 33.856 61/74 SEF 1/1  
62 Hutchins, Jim OBC 26:51 33.520 62/74 VBM 13/13  
63 Gray, Leona  OBC 26:56 33.416 63/74 VDF 1/1 1.2678
64 Bouchard, Sebastién OBC 26:59 33.354 64/74 VAM 13/15  
65 Ferlatte, Kari  FAE 27:29 32.747 65/74 VAF 5/7  
66 Rees, Stephanie  OBC 27:32 32.688 66/74 VAF 6/7 1.1091
67 Attia, Paul OBC 27:49 32.355 67/74 VAM 14/15  
68 Bean, Camille OBC 28:01 32.124 68/74 CAF 2/3  
69 Tran, Anthony OBC 28:10 31.953 69/74 SEM 5/5 1.2184
70 Nesdoly, Nina  OBC 28:16 31.840 70/74 CAF 3/3  
71 McLaren, Louise  OBC 28:30 31.579 71/74 VBF 4/5 1.2581
72 Gaudette, Jennifer OBC 29:29 30.526 72/74 VAF 7/7  
73 Nowoselski, Shiree  OBC 29:55 30.084 73/74 VBF 5/5  
74 MacDonald, Warren 
(flat tire)
OBC/EMD DNF   74/74 VAM 15/15  
 
Average Speed of all of the above 73 finishes (1095km in 29:25:22):37.216
>>>Average of the Average Speeds for these 73 finishes37.545<<<
 

The number of data records shown above is 74
The server processing of your query took: 0 wallclock secs ( 0.09 usr + 0.00 sys = 0.09 CPU)

Thanks to our Helpers: Neil Farish, David Gerrard, Jean-Yves Guenette, Gunter Hauschildt, Alex McKnight, Shannon Topham, Geoffrey Wright.

     


Apr 10 (Good Friday)
May 5 (10km)
  May 7  
May 12 (10km) May 14 May 19 May 19 (10km) May 21 May 26 May 26 (10km) May 28 May 31 (40km)
Jun 2 Jun 2 Jun 4 Jun 9 Jun 9 Jun 11 Jun 16 Jun 16 Jun 18 Jun 23 Jun 23 Jun 25 Jun 30 Jun 30
Jul 2 Jul 5 (40km) Jul 7 Jul 7 (10km) Jul 9 (10km) Jul 12 (40km) Jul 14 Jul 14 (10km) Jul 16 (10km) Jul 21 Jul 21 (10km) Jul 23 Jul 23 (10km) Jul 28 Jul 28 (10km) Jul 30 (10km)
Aug 4 (cancelled - thunder storm) Aug 4 (10km) (cancelled - thunder storm) Aug 6 (10km) Aug 9 (40km) Aug 11 Aug 11 (10km) Aug 13 (10km) Aug 18 Aug 18 (10km) Aug 20 (10km) (cancelled - construction) Aug 25 Aug 25 (Invitational) Aug 27
Sep 1 Sep 3 Sep 8 Sep 10 Sep 13 (40km) Sep 15 Sep 22 Sep 29

OTT Rankings
Best       Best by category
WTT Rankings for OBC Members
4 Best Speeds     4 Best Speeds by category
OBC Member Best Three 15km Rankings
Overall     by category     age-Hcap Female   age-Hcap Male
OBC BAR Ranking
Overall     by category     Rider "Consistency-Graph"
ABC BAR Ranking
Overall     by category     Rider "Consistency-Graph"
Other years
TT Calculator All TT People All TT events
ABC Home VVV Home
CKAP GOLD MEDAL
Other Links

Note: OTT data from 2003 through 2006-Apr-14 and 2007-Apr-06-? and WTT from 2008-? is taken from the official OBC site.

Please send your comments and suggestions to: Celia McInnis
Copyright © 1998-2011 Celia McInnis. All rights reserved. Links are welcomed.